Latest Weather Observations for Ernabella/Pukatja

IDS60801

Issued at 9:05 pm CDT Sunday 23 November 2014 (issued every 30 minutes, with the page automatically refreshed every 10 minutes)

About weather observations | Map of weather stations | Latest weather observations for SA | Other Formats
Station Details ID: 016097 Name: PUKATJA Lat: -26.26 Lon: 132.18 Height: 703.2 m
Data from the previous 72 hours. | See also: Recent months at Ernabella/Pukatja
Date/Time
CDT
Temp
°C
App
Temp
°C
Dew
Point
Rel
Hum
%
Delta-T
°C
Wind Press
QNH
hPa
Press
MSL
hPa
Rain
since 9 am
mm
Dir
 
Spd
km/h
Gust
km/h
Spd
kts
Gust
kts
23/09:00pm 29.4 29.3 9.5 29 11.5 NE 0 0 0 0 1012.0 1007.9 1.0
23/08:30pm 30.7 28.5 7.8 24 12.9 SW 9 15 5 8 1011.8 - 1.0
23/08:00pm 31.9 26.6 6.9 21 14.0 SW 24 30 13 16 1011.7 - 1.0
23/07:30pm 33.2 27.8 6.5 19 14.9 SW 24 33 13 18 1011.7 - 1.0
23/07:00pm 33.0 28.4 6.3 19 14.9 SW 20 28 11 15 1011.4 - 1.0
23/06:30pm 33.3 27.7 7.3 20 14.7 SW 26 35 14 19 1011.1 - 1.0
23/06:00pm 33.3 28.3 9.4 23 14.0 SW 26 39 14 21 1010.9 1006.7 1.0
23/05:30pm 34.0 28.7 9.9 23 14.3 SW 28 41 15 22 1010.7 - 1.0
23/05:00pm 33.5 29.1 8.9 22 14.3 SW 22 30 12 16 1010.6 - 1.0
23/04:30pm 33.5 29.8 11.4 26 13.3 SSW 22 39 12 21 1010.9 - 1.0
23/04:00pm 31.8 30.2 14.9 36 10.7 WSW 17 32 9 17 1011.1 - 1.0
23/03:35pm 30.1 26.7 15.8 42 9.1 SW 28 39 15 21 1011.1 - 0.6
23/03:30pm 35.5 30.6 8.3 19 15.8 SW 24 30 13 16 1010.9 - 0.0
23/03:00pm 36.2 31.6 8.1 18 16.4 SW 22 30 12 16 1010.9 1006.7 0.0
23/02:30pm 36.0 31.9 8.0 18 16.2 WNW 19 32 10 17 1011.4 - 0.0
23/02:00pm 36.4 32.0 7.4 17 16.7 WNW 20 41 11 22 1011.7 - 0.0
23/01:30pm 36.2 32.2 8.1 18 16.3 WNW 19 35 10 19 1011.9 - 0.0
23/01:00pm 36.9 32.4 8.7 18 16.6 WNW 22 41 12 22 1012.2 - 0.0
23/12:46pm 36.5 30.8 8.4 18 16.4 WNW 28 46 15 25 1012.6 - 0.0
23/12:30pm 36.6 31.5 7.6 17 16.8 WNW 24 35 13 19 1012.7 - 0.0
23/12:00pm 36.1 31.1 8.0 18 16.3 WNW 24 37 13 20 1013.0 1008.9 0.0
23/11:30am 35.1 30.1 8.0 19 15.7 NNW 24 35 13 19 1013.2 - 0.0
23/11:00am 35.0 31.3 7.9 19 15.6 WNW 17 26 9 14 1013.1 - 0.0
23/10:30am 33.8 29.6 8.4 21 14.7 WNW 20 28 11 15 1013.2 - 0.0
23/10:00am 33.5 29.1 8.9 22 14.3 W 22 28 12 15 1013.1 - 0.0
23/09:30am 32.5 30.9 8.7 23 13.7 NNW 7 19 4 10 1013.0 - 0.0
23/09:00am 30.6 28.0 9.5 27 12.2 W 13 17 7 9 1013.2 1009.1 0.0
23/08:30am 28.9 25.4 10.1 31 10.9 WNW 19 24 10 13 1013.1 - 0.0
23/08:00am 26.4 25.9 10.9 38 9.0 S 4 6 2 3 1012.6 - 0.0
23/07:30am 26.0 25.1 11.4 40 8.6 N 7 13 4 7 1012.5 - 0.0
23/07:00am 23.3 23.0 11.4 47 6.9 NNW 4 7 2 4 1012.6 - 0.0
23/06:30am 23.2 22.6 11.6 48 6.7 SW 6 7 3 4 1012.3 - 0.0
23/06:00am 24.0 23.1 12.6 49 6.8 W 9 17 5 9 1012.2 1008.1 0.0
23/05:30am 25.2 22.6 12.1 44 7.7 WNW 17 30 9 16 1012.0 - 0.0
23/05:00am 25.3 23.5 12.2 44 7.7 NW 13 26 7 14 1012.0 - 0.0
23/04:30am 24.7 24.0 12.0 45 7.5 NW 7 11 4 6 1011.9 - 0.0
23/04:00am 25.0 22.4 11.9 44 7.7 N 17 26 9 14 1012.3 - 0.0
23/03:30am 25.9 23.8 11.3 40 8.5 NW 13 19 7 10 1012.0 - 0.0
23/03:00am 25.5 22.9 12.0 43 8.0 W 17 24 9 13 1011.8 1007.7 0.0
23/02:30am 25.8 23.2 11.9 42 8.2 W 17 26 9 14 1012.0 - 0.0
23/02:00am 25.7 22.9 12.5 44 7.9 WNW 19 28 10 15 1012.3 - 0.0
23/01:30am 25.7 20.8 12.5 44 7.9 WNW 30 46 16 25 1012.5 - 0.0
23/01:00am 25.9 23.1 12.7 44 7.9 WNW 19 35 10 19 1013.3 - 0.0
23/12:30am 25.8 23.1 13.0 45 7.7 N 19 26 10 14 1013.1 - 0.0
23/12:00am 26.4 22.7 12.8 43 8.2 N 24 39 13 21 1013.4 1009.3 0.0
 
Date/Time
CDT
Temp
°C
App
Temp
°C
Dew
Point
Rel
Hum
%
Delta-T
°C
Wind Press
QNH
hPa
Press
MSL
hPa
Rain
since 9 am
mm
Dir
 
Spd
km/h
Gust
km/h
Spd
kts
Gust
kts
22/11:31pm 27.8 23.0 11.8 37 9.5 NNW 28 46 15 25 1013.3 - 0.0
22/11:30pm 27.9 23.6 11.9 37 9.5 NNW 26 46 14 25 1013.2 - 0.0
22/11:00pm 29.0 23.1 11.1 33 10.6 NW 33 54 18 29 1013.2 - 0.0
22/10:41pm 29.8 23.8 10.9 31 11.2 NNW 33 54 18 29 1013.1 - 0.0
22/10:30pm 30.0 24.3 11.0 31 11.2 NNW 32 46 17 25 1012.8 - 0.0
22/10:13pm 30.2 25.4 11.7 32 11.1 N 28 46 15 25 1012.5 - 0.0
22/10:00pm 31.2 25.5 11.1 29 12.0 N 32 48 17 26 1012.0 - 0.0
22/09:58pm 31.5 26.3 10.2 27 12.5 N 28 48 15 26 1011.9 - 0.0
22/09:30pm 32.1 27.9 8.4 23 13.6 NNW 20 33 11 18 1011.2 - 0.0
22/09:00pm 33.4 29.0 5.0 17 15.6 NNW 17 24 9 13 1010.6 1006.5 0.0
22/08:30pm 33.9 29.1 4.6 16 16.0 NNW 19 26 10 14 1010.0 - 0.0
22/08:00pm 34.0 29.9 4.6 16 16.0 N 15 26 8 14 1009.7 - 0.0
22/07:30pm 35.5 30.0 3.9 14 17.2 NNW 22 32 12 17 1009.5 - 0.0
22/07:00pm 36.1 29.9 2.2 12 18.0 NNW 24 46 13 25 1009.5 - 0.0
22/06:51pm 36.3 29.0 2.4 12 18.1 N 30 48 16 26 1009.1 - 0.0
22/06:30pm 37.7 30.0 2.2 11 19.0 W 32 46 17 25 1008.7 - 0.0
22/06:02pm 38.6 31.8 2.9 11 19.4 W 28 46 15 25 1008.4 - 0.0
22/06:00pm 38.3 31.8 2.7 11 19.3 W 26 46 14 25 1008.4 1004.2 0.0
22/05:30pm 38.9 33.4 1.8 10 19.9 W 20 28 11 15 1008.6 - 0.0
22/05:00pm 39.4 33.7 0.7 9 20.4 NNW 20 35 11 19 1008.8 - 0.0
22/04:30pm 39.4 34.3 0.7 9 20.4 W 17 35 9 19 1009.2 - 0.0
22/04:00pm 40.5 34.9 1.5 9 21.0 NW 20 33 11 18 1009.7 - 0.0
22/03:30pm 40.0 35.6 2.6 10 20.4 NW 15 33 8 18 1010.0 - 0.0
22/03:00pm 38.1 32.9 3.8 12 18.9 NW 20 33 11 18 1010.4 1006.3 0.0
22/02:30pm 37.9 32.1 2.4 11 19.1 NW 22 35 12 19 1011.1 - 0.0
22/02:00pm 38.9 33.2 6.6 14 18.6 NW 26 41 14 22 1011.4 - 0.0
22/01:30pm 38.0 31.6 8.7 17 17.3 WNW 32 43 17 23 1011.7 - 0.0
22/01:00pm 37.5 31.1 9.2 18 16.8 WNW 33 46 18 25 1012.1 - 0.0
22/12:31pm 36.6 30.4 10.0 20 15.9 NW 33 52 18 28 1012.3 - 0.0
22/12:30pm 36.9 30.5 9.5 19 16.3 NW 33 50 18 27 1012.3 - 0.0
22/12:00pm 35.7 28.3 10.0 21 15.3 NW 39 50 21 27 1012.3 1008.2 0.0
22/11:30am 34.5 27.1 9.7 22 14.7 NW 39 57 21 31 1012.5 - 0.0
22/11:00am 33.8 26.4 9.8 23 14.2 NW 39 61 21 33 1012.6 - 0.0
22/10:30am 33.1 26.6 10.4 25 13.5 NW 35 54 19 29 1012.7 - 0.0
22/10:00am 32.5 26.4 9.9 25 13.3 NNW 32 52 17 28 1012.7 - 0.0
22/09:33am 31.9 25.7 10.0 26 12.9 NW 33 54 18 29 1012.7 - 0.0
22/09:30am 31.9 25.7 10.0 26 12.9 NW 33 50 18 27 1012.7 - 0.0
22/09:01am 31.7 25.3 9.3 25 13.0 NNW 33 52 18 28 1012.3 - 0.0
22/09:00am 31.6 25.3 9.8 26 12.8 NNW 33 44 18 24 1012.3 1008.2 0.0
22/08:38am 31.5 25.6 9.1 25 13.0 NNW 30 48 16 26 1012.0 - 0.0
22/08:30am 31.3 26.3 9.5 26 12.7 NNW 26 39 14 21 1012.0 - 0.0
22/08:00am 30.3 26.1 9.8 28 11.9 NNW 22 32 12 17 1011.8 - 0.0
22/07:30am 28.4 24.4 10.6 33 10.4 N 22 33 12 18 1011.5 - 0.0
22/07:00am 26.8 23.7 11.7 39 8.9 N 19 24 10 13 1011.2 - 0.0
22/06:30am 26.4 24.1 11.7 40 8.7 N 15 24 8 13 1011.1 - 0.0
22/06:00am 26.8 24.5 11.7 39 8.9 N 15 22 8 12 1011.0 1006.8 0.0
22/05:30am 26.8 23.5 11.7 39 8.9 N 20 28 11 15 1010.7 - 0.0
22/05:00am 26.5 23.7 11.4 39 8.9 N 17 22 9 12 1010.9 - 0.0
22/04:30am 26.5 24.1 11.4 39 8.9 N 15 20 8 11 1011.0 - 0.0
22/04:00am 26.6 24.9 11.1 38 9.1 N 11 20 6 11 1011.1 - 0.0
22/03:30am 27.3 25.1 10.9 36 9.6 N 13 20 7 11 1011.3 - 0.0
22/03:00am 27.7 25.5 10.9 35 9.8 NNW 13 20 7 11 1011.5 1007.4 0.0
22/02:30am 27.9 26.0 10.6 34 10.1 NW 11 19 6 10 1011.8 - 0.0
22/02:00am 28.6 24.3 10.8 33 10.4 NNW 24 33 13 18 1011.9 - 0.0
22/01:30am 28.6 26.0 10.8 33 10.4 NNW 15 26 8 14 1012.0 - 0.0
22/01:00am 28.9 25.6 11.5 34 10.3 NNW 20 32 11 17 1012.2 - 0.0
22/12:30am 29.6 25.5 11.6 33 10.7 N 24 35 13 19 1012.3 - 0.0
22/12:00am 29.8 27.7 11.3 32 11.0 N 13 24 7 13 1012.5 1008.3 0.0
 
Date/Time
CDT
Temp
°C
App
Temp
°C
Dew
Point
Rel
Hum
%
Delta-T
°C
Wind Press
QNH
hPa
Press
MSL
hPa
Rain
since 9 am
mm
Dir
 
Spd
km/h
Gust
km/h
Spd
kts
Gust
kts
21/11:30pm 29.9 27.9 11.4 32 11.0 N 13 24 7 13 1012.3 - 0.0
21/11:00pm 30.2 26.9 11.7 32 11.1 N 20 30 11 16 1011.9 - 0.0
21/10:30pm 30.4 27.2 11.9 32 11.1 N 20 30 11 16 1011.8 - 0.0
21/10:00pm 31.0 26.3 11.9 31 11.5 N 28 41 15 22 1011.8 - 0.0
21/09:32pm 31.3 25.9 12.2 31 11.6 N 32 50 17 27 1011.6 - 0.0
21/09:30pm 31.3 25.7 12.2 31 11.6 N 33 50 18 27 1011.6 - 0.0
21/09:00pm 32.4 28.9 12.1 29 12.4 N 22 37 12 20 1010.7 1006.6 0.0
21/08:45pm 33.0 28.0 10.9 26 13.2 N 28 35 15 19 1010.2 - 0.0
21/08:30pm 35.0 31.5 3.5 14 17.0 NNW 11 15 6 8 1009.7 - 0.0
21/08:00pm 37.0 31.3 2.9 12 18.4 NW 22 30 12 16 1009.4 - 0.0
21/07:30pm 37.2 32.3 4.2 13 18.2 NW 19 28 10 15 1009.0 - 0.0
21/07:00pm 37.8 32.6 5.7 14 18.1 NW 22 32 12 17 1008.8 - 0.0
21/06:30pm 38.3 33.6 5.0 13 18.7 WNW 19 30 10 16 1008.6 - 0.0
21/06:00pm 38.4 33.1 5.1 13 18.7 WNW 22 39 12 21 1008.6 1004.4 0.0
21/05:30pm 38.5 33.5 6.3 14 18.4 W 22 35 12 19 1008.7 - 0.0
21/05:13pm 38.7 32.6 6.4 14 18.5 NW 28 46 15 25 1009.0 - 0.0
21/05:00pm 39.0 32.7 5.6 13 18.9 NW 28 37 15 20 1009.1 - 0.0
21/04:30pm 37.9 32.6 6.8 15 17.9 N 24 37 13 20 1009.5 - 0.0
21/04:00pm 37.9 33.8 8.6 17 17.3 N 20 30 11 16 1009.9 - 0.0
21/03:30pm 37.4 32.8 8.2 17 17.1 NNW 22 41 12 22 1010.4 - 0.0
21/03:00pm 38.4 35.1 8.1 16 17.8 NNW 15 26 8 14 1011.0 1006.8 0.0
21/02:30pm 36.6 32.6 8.4 18 16.5 WNW 19 30 10 16 1011.5 - 0.0
21/02:00pm 36.9 32.8 7.8 17 16.9 NNW 19 39 10 21 1011.9 - 0.0
21/01:30pm 36.2 32.2 8.9 19 16.1 NNW 20 39 11 21 1012.6 - 0.0
21/01:00pm 35.9 32.2 9.4 20 15.7 N 19 35 10 19 1013.1 - 0.0
21/12:30pm 35.9 31.6 9.4 20 15.7 NE 22 32 12 17 1013.5 - 0.0
21/12:00pm 34.5 31.2 11.6 25 13.9 NNE 20 33 11 18 1013.8 1009.7 0.0
21/11:30am 32.1 29.3 13.3 31 11.6 NNE 20 39 11 21 1014.3 - 0.0
21/11:00am 31.5 28.5 13.7 33 11.0 NNE 22 32 12 17 1014.6 - 0.0
21/10:30am 30.2 27.5 13.5 36 10.3 NE 20 32 11 17 1014.7 - 0.0
21/10:00am 29.8 27.5 14.0 38 9.8 ENE 19 24 10 13 1014.9 - 0.0
21/09:30am 28.1 25.4 14.7 44 8.3 ENE 22 28 12 15 1014.9 - 0.0
21/09:00am 26.6 24.4 15.0 49 7.2 E 20 32 11 17 1014.8 1010.7 1.0
21/08:30am 25.9 24.1 15.9 54 6.3 E 20 26 11 14 1014.8 - 1.0
21/08:00am 24.3 23.3 16.6 62 4.9 E 17 22 9 12 1014.6 - 1.0
21/07:30am 22.5 22.6 16.5 69 3.8 ENE 11 15 6 8 1014.4 - 1.0
21/07:00am 20.8 20.3 15.8 73 3.1 E 13 19 7 10 1014.1 - 1.0
21/06:30am 20.0 21.8 15.6 76 2.7 CALM 0 6 0 3 1014.0 - 1.0
21/06:00am 20.1 20.6 15.1 73 3.0 NNE 6 7 3 4 1013.7 1009.6 1.0
21/05:30am 20.6 21.2 15.4 72 3.2 ENE 6 7 3 4 1013.3 - 1.0
21/05:00am 19.6 19.3 14.4 72 3.1 ENE 9 11 5 6 1013.1 - 1.0
21/04:30am 21.3 21.0 15.4 69 3.6 E 11 15 6 8 1012.9 - 1.0
21/04:00am 21.0 21.8 15.8 72 3.2 ESE 6 15 3 8 1012.8 - 1.0
21/03:30am 19.9 20.1 14.7 72 3.1 ESE 7 9 4 5 1013.0 - 1.0
21/03:00am 19.2 20.7 14.7 75 2.7 CALM 0 7 0 4 1012.9 1008.8 1.0
21/02:30am 20.3 22.0 15.1 72 3.2 CALM 0 0 0 0 1013.0 - 1.0
21/02:00am 20.6 22.4 15.4 72 3.2 CALM 0 0 0 0 1013.2 - 1.0
21/01:30am 21.5 21.5 15.3 68 3.8 E 9 9 5 5 1013.5 - 1.0
21/01:00am 21.2 21.4 15.7 71 3.4 NNE 9 11 5 6 1013.6 - 1.0
21/12:30am 22.3 22.6 15.9 67 4.0 E 9 13 5 7 1013.6 - 1.0
21/12:00am 22.2 22.2 15.1 64 4.3 E 9 11 5 6 1014.0 1009.9 1.0
 
Date/Time
CDT
Temp
°C
App
Temp
°C
Dew
Point
Rel
Hum
%
Delta-T
°C
Wind Press
QNH
hPa
Press
MSL
hPa
Rain
since 9 am
mm
Dir
 
Spd
km/h
Gust
km/h
Spd
kts
Gust
kts
20/11:30pm 22.5 22.6 15.4 64 4.4 ESE 9 13 5 7 1013.8 - 1.0
20/11:00pm 22.8 23.2 15.4 63 4.6 WNW 7 9 4 5 1014.3 - 1.0
20/10:30pm 23.1 23.5 15.4 62 4.8 ENE 7 9 4 5 1013.8 - 1.0
20/10:00pm 23.7 23.0 15.5 60 5.1 E 13 19 7 10 1013.4 - 1.0
20/09:30pm 24.1 23.0 15.3 58 5.4 ENE 15 20 8 11 1013.4 - 1.0

Other Formats:

Comma delimited format used in spreadsheet applications
http://www.bom.gov.au/fwo/IDS60801/IDS60801.94474.axf

JavaScript Object Notation format (JSON) in row-major order
http://www.bom.gov.au/fwo/IDS60801/IDS60801.94474.json